Time;durP1;ratioP1;P1;durP2;ratioP2;P2;SDS_P1;SDS_P2;PMS_P1;PMS_P2;Temp;Humidity;BMP_temperature;BMP_pressure;BME280_temperature;BME280_humidity;BME280_pressure;Samples;Min_cycle;Max_cycle;Signal;HPM_P1;HPM_P2
2022/12/20 00:02:05;;;;;;;34.58;32.35;;;;;;;;;;10160299;28;20042;-71
2022/12/20 00:07:01;;;;;;;35.65;33.03;;;;;;;;;;10161813;28;20042;-71
2022/12/20 00:11:57;;;;;;;33.83;31.52;;;;;;;;;;10162992;28;20412;-73
2022/12/20 00:16:54;;;;;;;35.03;32.53;;;;;;;;;;10155835;28;20121;-73
2022/12/20 00:21:50;;;;;;;34.65;32.15;;;;;;;;;;10169251;28;20570;-73
2022/12/20 00:26:46;;;;;;;34.20;31.55;;;;;;;;;;10151616;28;20054;-74
2022/12/20 00:31:43;;;;;;;33.42;31.13;;;;;;;;;;10163444;28;20133;-73
2022/12/20 00:36:39;;;;;;;31.85;29.40;;;;;;;;;;10160819;28;20054;-73
2022/12/20 00:41:35;;;;;;;32.50;30.20;;;;;;;;;;10167919;28;20057;-70
2022/12/20 00:46:33;;;;;;;30.92;28.45;;;;;;;;;;10158534;28;20054;-75
2022/12/20 00:51:31;;;;;;;29.50;27.58;;;;;;;;;;10161827;28;20077;-74
2022/12/20 00:56:27;;;;;;;31.75;29.17;;;;;;;;;;10157269;28;20499;-75
2022/12/20 01:01:25;;;;;;;30.17;27.85;;;;;;;;;;10159094;28;20047;-74
2022/12/20 01:06:22;;;;;;;31.33;28.98;;;;;;;;;;10153952;28;20739;-70
2022/12/20 01:11:20;;;;;;;32.92;30.40;;;;;;;;;;10158452;28;20070;-74
2022/12/20 01:16:27;;;;;;;33.67;31.35;;;;;;;;;;10159854;28;20049;-75
2022/12/20 01:21:24;;;;;;;33.95;31.60;;;;;;;;;;10158846;28;20050;-73
2022/12/20 01:26:24;;;;;;;35.58;33.15;;;;;;;;;;10150786;28;20046;-70
2022/12/20 01:31:20;;;;;;;34.22;31.95;;;;;;;;;;10153411;28;20148;-69
2022/12/20 01:36:19;;;;;;;33.63;31.23;;;;;;;;;;10162616;28;20081;-69
2022/12/20 01:41:16;;;;;;;33.05;30.80;;;;;;;;;;10153884;28;20068;-74
2022/12/20 01:46:12;;;;;;;33.20;30.73;;;;;;;;;;10153989;28;20057;-72
2022/12/20 01:51:08;;;;;;;29.20;27.15;;;;;;;;;;10149588;28;20575;-73
2022/12/20 01:56:06;;;;;;;31.63;29.42;;;;;;;;;;10157755;28;20564;-70
2022/12/20 02:01:02;;;;;;;33.83;31.27;;;;;;;;;;10158124;28;20049;-70
2022/12/20 02:06:12;;;;;;;32.22;30.00;;;;;;;;;;10145426;28;20046;-71
2022/12/20 02:11:15;;;;;;;32.33;30.02;;;;;;;;;;10153365;28;20141;-75
2022/12/20 02:16:13;;;;;;;34.63;32.38;;;;;;;;;;10154986;28;20085;-76
2022/12/20 02:21:28;;;;;;;34.22;31.85;;;;;;;;;;10154578;28;20042;-72
2022/12/20 02:26:27;;;;;;;34.03;31.65;;;;;;;;;;10148397;28;20116;-72
2022/12/20 02:31:26;;;;;;;35.53;32.95;;;;;;;;;;10142146;28;20042;-72
2022/12/20 02:36:24;;;;;;;34.55;32.28;;;;;;;;;;10151207;28;20644;-72
2022/12/20 02:41:31;;;;;;;36.28;33.78;;;;;;;;;;10160105;28;20077;-72
2022/12/20 02:46:28;;;;;;;36.47;34.20;;;;;;;;;;10149638;28;20042;-72
2022/12/20 02:51:25;;;;;;;34.15;31.95;;;;;;;;;;10148227;28;20046;-72
2022/12/20 02:56:21;;;;;;;34.22;32.13;;;;;;;;;;10154181;28;20129;-72
2022/12/20 03:01:27;;;;;;;33.70;31.40;;;;;;;;;;10152899;28;20046;-72
2022/12/20 03:06:24;;;;;;;33.58;31.48;;;;;;;;;;10151074;28;20129;-72
2022/12/20 03:11:20;;;;;;;32.83;30.45;;;;;;;;;;10155895;28;20064;-72
2022/12/20 03:16:17;;;;;;;33.83;31.58;;;;;;;;;;10152073;28;20054;-72
2022/12/20 03:21:14;;;;;;;34.05;31.98;;;;;;;;;;10159122;28;20054;-72
2022/12/20 03:26:10;;;;;;;32.80;30.42;;;;;;;;;;10155349;28;20055;-73
2022/12/20 03:31:07;;;;;;;32.83;30.42;;;;;;;;;;10165593;28;20043;-72
2022/12/20 03:36:03;;;;;;;30.08;27.95;;;;;;;;;;10157353;28;20042;-72
2022/12/20 03:40:59;;;;;;;30.75;28.77;;;;;;;;;;10150571;28;20559;-72
2022/12/20 03:45:56;;;;;;;29.92;28.08;;;;;;;;;;10147392;28;20138;-72
2022/12/20 03:50:52;;;;;;;30.45;28.27;;;;;;;;;;10152920;28;20053;-72
2022/12/20 03:55:48;;;;;;;29.58;27.40;;;;;;;;;;10156055;28;20411;-72
2022/12/20 04:00:45;;;;;;;30.92;28.88;;;;;;;;;;10154997;28;20496;-72
2022/12/20 04:05:41;;;;;;;29.25;27.17;;;;;;;;;;10154934;28;20077;-72
2022/12/20 04:11:14;;;;;;;28.20;26.20;;;;;;;;;;10155306;28;20492;-73
2022/12/20 04:15:53;;;;;;;26.88;24.98;;;;;;;;;;10150720;28;20046;-72
2022/12/20 04:20:58;;;;;;;24.40;22.80;;;;;;;;;;10150587;28;20093;-73
2022/12/20 04:25:54;;;;;;;25.48;23.73;;;;;;;;;;10147083;28;20048;-72
2022/12/20 04:30:51;;;;;;;24.15;22.55;;;;;;;;;;10131480;28;20136;-69
2022/12/20 04:35:47;;;;;;;26.20;24.40;;;;;;;;;;10151097;28;20182;-71
2022/12/20 04:40:43;;;;;;;26.23;24.38;;;;;;;;;;10146435;28;20130;-71
2022/12/20 04:45:40;;;;;;;27.27;25.30;;;;;;;;;;10139337;28;20058;-70
2022/12/20 04:50:36;;;;;;;28.02;26.13;;;;;;;;;;10146811;28;20129;-71
2022/12/20 04:55:37;;;;;;;27.48;25.58;;;;;;;;;;10144859;28;20532;-72
2022/12/20 05:00:33;;;;;;;30.35;28.25;;;;;;;;;;10131900;28;20054;-72
2022/12/20 05:05:29;;;;;;;31.30;29.20;;;;;;;;;;10144801;28;20054;-72
2022/12/20 05:10:25;;;;;;;34.75;32.53;;;;;;;;;;10148651;28;20958;-72
2022/12/20 05:15:22;;;;;;;41.13;38.50;;;;;;;;;;10142684;28;20065;-72
2022/12/20 05:20:18;;;;;;;47.22;44.40;;;;;;;;;;10153140;28;20129;-72
2022/12/20 05:30:30;;;;;;;56.35;52.90;;;;;;;;;;10146489;28;20423;-71
2022/12/20 05:35:26;;;;;;;58.67;55.17;;;;;;;;;;10157111;28;21331;-72
2022/12/20 05:40:22;;;;;;;63.78;59.75;;;;;;;;;;10148103;28;20047;-72
2022/12/20 05:45:19;;;;;;;64.25;60.17;;;;;;;;;;10151397;28;20053;-72
2022/12/20 05:50:16;;;;;;;65.93;62.03;;;;;;;;;;10142182;28;20049;-72
2022/12/20 05:55:14;;;;;;;69.40;65.00;;;;;;;;;;10151561;28;20073;-72
2022/12/20 06:00:11;;;;;;;69.40;64.97;;;;;;;;;;10166871;28;20050;-72
2022/12/20 06:05:08;;;;;;;73.28;68.35;;;;;;;;;;10156722;28;20124;-71
2022/12/20 06:10:05;;;;;;;76.95;72.35;;;;;;;;;;10153774;28;20061;-72
2022/12/20 06:15:01;;;;;;;78.25;73.35;;;;;;;;;;10159278;28;20479;-72
2022/12/20 06:19:57;;;;;;;81.03;75.63;;;;;;;;;;10156349;28;20076;-72
2022/12/20 06:24:54;;;;;;;82.35;76.93;;;;;;;;;;10144337;28;20516;-72
2022/12/20 06:29:53;;;;;;;79.35;74.28;;;;;;;;;;10164302;28;20064;-72
2022/12/20 06:34:50;;;;;;;77.75;72.38;;;;;;;;;;10160992;28;20283;-72
2022/12/20 06:39:46;;;;;;;84.32;78.63;;;;;;;;;;10155995;28;20054;-72
2022/12/20 06:44:42;;;;;;;81.50;76.10;;;;;;;;;;10154642;28;20504;-72
2022/12/20 06:49:38;;;;;;;82.65;76.93;;;;;;;;;;10150201;28;20100;-72
2022/12/20 06:54:35;;;;;;;79.97;74.53;;;;;;;;;;10158090;28;20050;-72
2022/12/20 06:59:31;;;;;;;84.30;78.45;;;;;;;;;;10153993;28;20042;-72
2022/12/20 07:04:27;;;;;;;87.28;81.03;;;;;;;;;;10153962;28;20053;-73
2022/12/20 07:09:24;;;;;;;80.47;75.20;;;;;;;;;;10148137;28;20041;-72
2022/12/20 07:14:20;;;;;;;85.30;79.63;;;;;;;;;;10142515;28;20137;-72
2022/12/20 07:19:16;;;;;;;77.93;72.47;;;;;;;;;;10144745;28;20047;-72
2022/12/20 07:24:12;;;;;;;76.88;71.50;;;;;;;;;;10147930;28;20524;-72
2022/12/20 07:29:09;;;;;;;79.40;73.90;;;;;;;;;;10146048;28;20133;-72
2022/12/20 07:34:11;;;;;;;81.73;75.60;;;;;;;;;;10149002;28;20069;-72
2022/12/20 07:39:07;;;;;;;84.80;78.88;;;;;;;;;;10157161;28;20065;-70
2022/12/20 07:44:05;;;;;;;87.45;81.38;;;;;;;;;;10161436;28;20212;-70
2022/12/20 07:49:01;;;;;;;91.25;84.65;;;;;;;;;;10154956;28;20061;-70
2022/12/20 07:54:00;;;;;;;87.10;81.25;;;;;;;;;;10153022;28;20430;-70
2022/12/20 07:58:58;;;;;;;85.75;79.80;;;;;;;;;;10149274;28;20675;-70
2022/12/20 08:03:57;;;;;;;83.85;78.07;;;;;;;;;;10149683;28;20165;-70
2022/12/20 08:08:56;;;;;;;83.82;77.80;;;;;;;;;;10146754;28;20555;-70
2022/12/20 08:13:52;;;;;;;85.40;79.57;;;;;;;;;;10149325;28;20050;-70
2022/12/20 08:18:53;;;;;;;87.35;81.25;;;;;;;;;;10145685;28;20074;-70
2022/12/20 08:23:50;;;;;;;92.10;85.60;;;;;;;;;;10151588;28;20053;-70
2022/12/20 08:28:47;;;;;;;92.95;86.75;;;;;;;;;;10150300;28;20042;-69
2022/12/20 08:33:43;;;;;;;92.32;85.95;;;;;;;;;;10147558;28;20413;-70
2022/12/20 08:38:40;;;;;;;93.63;87.20;;;;;;;;;;10148833;28;20046;-70
2022/12/20 08:43:36;;;;;;;95.20;88.78;;;;;;;;;;10151430;28;20046;-70
2022/12/20 08:48:33;;;;;;;94.82;88.88;;;;;;;;;;10148709;28;20057;-70
2022/12/20 08:53:30;;;;;;;94.85;88.88;;;;;;;;;;10152113;28;20042;-70
2022/12/20 08:58:26;;;;;;;91.57;85.85;;;;;;;;;;10152082;28;20137;-70
2022/12/20 09:03:22;;;;;;;82.20;76.88;;;;;;;;;;10154439;28;20715;-70
2022/12/20 09:08:19;;;;;;;80.10;75.28;;;;;;;;;;10156758;28;20124;-69
2022/12/20 09:13:15;;;;;;;74.60;69.97;;;;;;;;;;10159407;28;20599;-70
2022/12/20 09:18:11;;;;;;;72.75;68.20;;;;;;;;;;10141340;28;20042;-70
2022/12/20 09:23:07;;;;;;;71.70;67.30;;;;;;;;;;10143817;28;20050;-69
2022/12/20 09:28:04;;;;;;;63.65;59.53;;;;;;;;;;10146903;28;20070;-72
2022/12/20 09:33:00;;;;;;;62.22;58.20;;;;;;;;;;10142954;28;20176;-70
2022/12/20 09:38:05;;;;;;;59.72;55.70;;;;;;;;;;10144730;28;20046;-71
2022/12/20 09:43:03;;;;;;;59.00;55.17;;;;;;;;;;10146269;28;20050;-72
2022/12/20 09:48:00;;;;;;;55.25;51.40;;;;;;;;;;10141295;28;20133;-70
2022/12/20 09:53:15;;;;;;;51.88;48.45;;;;;;;;;;10144806;28;20137;-70
2022/12/20 09:58:32;;;;;;;56.20;52.40;;;;;;;;;;10147465;28;20065;-70
2022/12/20 10:03:31;;;;;;;51.83;48.58;;;;;;;;;;10162336;28;20069;-69
2022/12/20 10:08:27;;;;;;;53.10;49.60;;;;;;;;;;10147147;28;20074;-70
2022/12/20 10:13:36;;;;;;;55.03;51.28;;;;;;;;;;10162568;28;20056;-70
2022/12/20 10:18:35;;;;;;;60.92;56.92;;;;;;;;;;10149998;28;20140;-70
2022/12/20 10:23:50;;;;;;;69.30;64.75;;;;;;;;;;10154143;28;20065;-70
2022/12/20 10:28:46;;;;;;;66.15;61.72;;;;;;;;;;10145578;28;20145;-70
2022/12/20 10:33:49;;;;;;;63.80;59.70;;;;;;;;;;10158341;28;20053;-71
2022/12/20 10:38:46;;;;;;;62.50;58.45;;;;;;;;;;10163520;28;20539;-70
2022/12/20 10:43:46;;;;;;;59.58;55.65;;;;;;;;;;10149163;28;20512;-71
2022/12/20 10:48:44;;;;;;;52.78;49.38;;;;;;;;;;10156847;28;20587;-70
2022/12/20 10:53:57;;;;;;;44.13;41.15;;;;;;;;;;10153641;28;20064;-70
2022/12/20 10:58:53;;;;;;;;;;;;;;;;;;10146766;28;20624;-70
2022/12/20 11:03:54;;;;;;;38.35;35.95;;;;;;;;;;10172812;28;19961;-70
2022/12/20 11:08:51;;;;;;;38.50;36.00;;;;;;;;;;10157173;28;20056;-70
2022/12/20 11:14:12;;;;;;;38.20;35.40;;;;;;;;;;10158489;28;20050;-70
2022/12/20 11:19:26;;;;;;;35.43;32.90;;;;;;;;;;10161199;28;20073;-71
2022/12/20 11:24:43;;;;;;;35.28;32.78;;;;;;;;;;10168618;28;20053;-71
2022/12/20 11:29:42;;;;;;;35.53;33.17;;;;;;;;;;10148045;28;20070;-70
2022/12/20 11:34:39;;;;;;;32.70;30.55;;;;;;;;;;10140041;28;20133;-70
2022/12/20 11:39:38;;;;;;;32.85;30.70;;;;;;;;;;10144139;28;20078;-71
2022/12/20 11:44:40;;;;;;;32.20;29.98;;;;;;;;;;10144586;28;20051;-71
2022/12/20 11:49:51;;;;;;;30.35;28.02;;;;;;;;;;10146207;28;20038;-72
2022/12/20 11:54:51;;;;;;;27.15;25.25;;;;;;;;;;10156390;28;20664;-72
2022/12/20 11:59:55;;;;;;;24.65;22.92;;;;;;;;;;10156357;28;20507;-72
2022/12/20 12:05:03;;;;;;;25.23;23.30;;;;;;;;;;10154436;28;20137;-72
2022/12/20 12:09:59;;;;;;;24.98;22.83;;;;;;;;;;10148696;28;20531;-71
2022/12/20 12:15:04;;;;;;;22.08;20.55;;;;;;;;;;10151852;28;20073;-71
2022/12/20 12:20:23;;;;;;;23.23;21.58;;;;;;;;;;10174887;28;20051;-72
2022/12/20 12:25:19;;;;;;;25.13;23.38;;;;;;;;;;10164849;28;20050;-71
2022/12/20 12:30:16;;;;;;;24.80;22.95;;;;;;;;;;10154891;28;20879;-72
2022/12/20 12:35:30;;;;;;;26.23;24.05;;;;;;;;;;10139684;28;20472;-72
2022/12/20 12:40:45;;;;;;;25.02;23.17;;;;;;;;;;10152301;28;20794;-71
2022/12/20 12:45:49;;;;;;;31.83;29.67;;;;;;;;;;10148365;28;20061;-71
2022/12/20 12:50:46;;;;;;;37.92;35.55;;;;;;;;;;10151669;28;20056;-71
2022/12/20 12:55:50;;;;;;;49.83;46.65;;;;;;;;;;10145935;28;20042;-72
2022/12/20 13:00:50;;;;;;;52.70;49.60;;;;;;;;;;10149895;28;20049;-71
2022/12/20 13:05:47;;;;;;;55.75;52.40;;;;;;;;;;10146523;28;20133;-71
2022/12/20 13:10:43;;;;;;;63.08;58.88;;;;;;;;;;10148199;28;20074;-71
2022/12/20 13:15:39;;;;;;;66.32;62.45;;;;;;;;;;10147004;28;20045;-71
2022/12/20 13:20:36;;;;;;;69.20;65.03;;;;;;;;;;10150737;28;20708;-71
2022/12/20 13:25:34;;;;;;;74.40;69.80;;;;;;;;;;10145142;28;20065;-71
2022/12/20 13:30:32;;;;;;;72.18;67.88;;;;;;;;;;10147543;28;20125;-72
2022/12/20 13:35:29;;;;;;;73.47;68.95;;;;;;;;;;10150352;28;20507;-71
2022/12/20 13:40:43;;;;;;;70.25;65.57;;;;;;;;;;10159730;28;20065;-70
2022/12/20 13:45:42;;;;;;;72.80;68.15;;;;;;;;;;10147347;28;20054;-70
2022/12/20 13:50:39;;;;;;;74.10;69.43;;;;;;;;;;10141032;28;20508;-71
2022/12/20 13:55:37;;;;;;;75.80;70.75;;;;;;;;;;10145511;28;20125;-71
2022/12/20 14:00:33;;;;;;;80.07;74.75;;;;;;;;;;10146897;28;20401;-71
2022/12/20 14:05:35;;;;;;;81.03;75.95;;;;;;;;;;10147255;28;20484;-71
2022/12/20 14:10:32;;;;;;;79.70;74.60;;;;;;;;;;10145731;28;20054;-71
2022/12/20 14:15:30;;;;;;;75.78;70.45;;;;;;;;;;10141876;28;20475;-71
2022/12/20 14:20:31;;;;;;;73.80;69.00;;;;;;;;;;10158164;28;20129;-72
2022/12/20 14:25:30;;;;;;;80.18;74.72;;;;;;;;;;10150027;28;20054;-71
2022/12/20 14:30:31;;;;;;;79.70;74.40;;;;;;;;;;10151414;28;20069;-71
2022/12/20 14:35:27;;;;;;;79.85;74.57;;;;;;;;;;10148572;28;20104;-71
2022/12/20 14:40:25;;;;;;;79.13;73.93;;;;;;;;;;10148208;28;20468;-71
2022/12/20 14:45:25;;;;;;;78.70;72.70;;;;;;;;;;10148030;28;20129;-71
2022/12/20 14:50:26;;;;;;;76.65;71.55;;;;;;;;;;10157548;28;20113;-71
2022/12/20 14:55:29;;;;;;;75.78;70.65;;;;;;;;;;10142876;28;20046;-70
2022/12/20 15:00:30;;;;;;;76.53;71.28;;;;;;;;;;10158412;28;20073;-72
2022/12/20 15:05:32;;;;;;;78.78;73.47;;;;;;;;;;10147760;28;20045;-71
2022/12/20 15:10:29;;;;;;;79.80;74.30;;;;;;;;;;10152957;28;20062;-71
2022/12/20 15:15:25;;;;;;;78.78;73.22;;;;;;;;;;10152981;28;20048;-71
2022/12/20 15:20:25;;;;;;;83.72;77.65;;;;;;;;;;10159800;28;20069;-71
2022/12/20 15:25:21;;;;;;;80.05;74.55;;;;;;;;;;10155678;28;20054;-71
2022/12/20 15:30:18;;;;;;;84.78;79.05;;;;;;;;;;10139932;28;21160;-72
2022/12/20 15:35:14;;;;;;;83.10;77.07;;;;;;;;;;10140611;28;20053;-71
2022/12/20 15:40:12;;;;;;;81.30;75.40;;;;;;;;;;10139433;28;20042;-71
2022/12/20 15:45:13;;;;;;;81.53;75.72;;;;;;;;;;10155903;28;20100;-71
2022/12/20 15:50:10;;;;;;;77.45;72.25;;;;;;;;;;10147453;28;20058;-70
2022/12/20 15:55:09;;;;;;;82.65;77.07;;;;;;;;;;10150125;28;20204;-71
2022/12/20 16:00:05;;;;;;;78.68;73.18;;;;;;;;;;10128633;28;20575;-71
2022/12/20 16:05:02;;;;;;;81.43;75.85;;;;;;;;;;10137998;28;20054;-70
2022/12/20 16:09:58;;;;;;;80.60;74.70;;;;;;;;;;10140106;28;20058;-71
2022/12/20 16:14:55;;;;;;;80.80;75.38;;;;;;;;;;10159377;28;20039;-71
2022/12/20 16:19:51;;;;;;;81.80;75.88;;;;;;;;;;10156111;28;20142;-71
2022/12/20 16:24:48;;;;;;;81.03;75.45;;;;;;;;;;10145788;28;20137;-71
2022/12/20 16:29:44;;;;;;;83.70;78.10;;;;;;;;;;10161819;28;20058;-71
2022/12/20 16:34:41;;;;;;;82.00;76.30;;;;;;;;;;10164015;28;20042;-71
2022/12/20 16:39:37;;;;;;;76.95;71.68;;;;;;;;;;10165426;28;20481;-71
2022/12/20 16:44:34;;;;;;;76.05;70.85;;;;;;;;;;10148872;28;20053;-71
2022/12/20 16:49:30;;;;;;;76.80;71.32;;;;;;;;;;10149727;28;20069;-71
2022/12/20 16:54:26;;;;;;;74.45;69.25;;;;;;;;;;10148863;28;20038;-71
2022/12/20 16:59:23;;;;;;;78.18;72.88;;;;;;;;;;10148183;28;20109;-71
2022/12/20 17:04:20;;;;;;;74.68;69.38;;;;;;;;;;10158016;28;20046;-72
2022/12/20 17:09:17;;;;;;;72.00;66.82;;;;;;;;;;10148091;28;20041;-71
2022/12/20 17:14:13;;;;;;;75.50;70.22;;;;;;;;;;10152030;28;20042;-71
2022/12/20 17:19:10;;;;;;;71.80;66.40;;;;;;;;;;10160294;28;20117;-71
2022/12/20 17:24:14;;;;;;;74.75;69.38;;;;;;;;;;10167155;28;20145;-71
2022/12/20 17:29:10;;;;;;;75.75;70.55;;;;;;;;;;10164470;28;20144;-71
2022/12/20 17:34:23;;;;;;;73.22;68.25;;;;;;;;;;10266837;28;20633;-71
2022/12/20 17:39:20;;;;;;;71.53;65.88;;;;;;;;;;10258610;28;20069;-71
2022/12/20 17:44:18;;;;;;;72.57;67.70;;;;;;;;;;10253926;28;20041;-71
2022/12/20 17:49:14;;;;;;;67.25;62.17;;;;;;;;;;10256291;28;20045;-71
2022/12/20 17:54:19;;;;;;;64.40;59.97;;;;;;;;;;10225487;28;20065;-71
2022/12/20 17:59:15;;;;;;;67.47;62.65;;;;;;;;;;10233646;28;22010;-71
2022/12/20 18:04:13;;;;;;;68.07;63.47;;;;;;;;;;10228138;28;20053;-71
2022/12/20 18:09:14;;;;;;;67.70;62.63;;;;;;;;;;10233344;28;20045;-71
2022/12/20 18:14:10;;;;;;;69.70;64.53;;;;;;;;;;10245461;28;20131;-71
2022/12/20 18:19:07;;;;;;;65.15;60.20;;;;;;;;;;10235933;28;20064;-70
2022/12/20 18:24:04;;;;;;;66.38;61.40;;;;;;;;;;10236737;28;20045;-71
2022/12/20 18:29:01;;;;;;;68.07;63.42;;;;;;;;;;10229282;28;20638;-71
2022/12/20 18:33:58;;;;;;;66.03;61.42;;;;;;;;;;10237775;28;20049;-71
2022/12/20 18:38:55;;;;;;;65.40;60.92;;;;;;;;;;10222552;28;20512;-71
2022/12/20 18:43:52;;;;;;;65.25;60.65;;;;;;;;;;10261255;28;20125;-71
2022/12/20 18:48:49;;;;;;;62.63;58.33;;;;;;;;;;10273776;28;20048;-70
2022/12/20 18:53:46;;;;;;;66.00;61.45;;;;;;;;;;10278732;28;20517;-71
2022/12/20 18:58:43;;;;;;;64.55;59.85;;;;;;;;;;10261693;28;20128;-71
2022/12/20 19:03:39;;;;;;;65.25;60.80;;;;;;;;;;10250539;28;20140;-71
2022/12/20 19:08:36;;;;;;;62.15;57.97;;;;;;;;;;10271874;28;20046;-71
2022/12/20 19:13:32;;;;;;;65.88;61.17;;;;;;;;;;10262432;28;20053;-70
2022/12/20 19:18:29;;;;;;;64.68;59.70;;;;;;;;;;10294189;28;20386;-71
2022/12/20 19:23:25;;;;;;;67.72;62.75;;;;;;;;;;10286279;28;20052;-70
2022/12/20 19:28:22;;;;;;;69.95;64.53;;;;;;;;;;10289690;28;20040;-70
2022/12/20 19:33:19;;;;;;;73.57;68.03;;;;;;;;;;10292770;28;20092;-70
2022/12/20 19:38:15;;;;;;;74.47;68.65;;;;;;;;;;10279386;28;20041;-71
2022/12/20 19:43:11;;;;;;;77.15;71.18;;;;;;;;;;10265099;28;20049;-70
2022/12/20 19:48:07;;;;;;;75.82;70.15;;;;;;;;;;10262955;28;20056;-70
2022/12/20 19:53:04;;;;;;;77.13;71.18;;;;;;;;;;10259477;28;20057;-70
2022/12/20 19:58:00;;;;;;;78.53;72.60;;;;;;;;;;10256192;28;20045;-71
2022/12/20 20:02:57;;;;;;;78.00;72.13;;;;;;;;;;10236590;28;20530;-74
2022/12/20 20:07:53;;;;;;;79.97;74.03;;;;;;;;;;10252657;28;20306;-77
2022/12/20 20:12:50;;;;;;;76.95;71.05;;;;;;;;;;10271807;28;20161;-72
2022/12/20 20:17:46;;;;;;;79.85;73.90;;;;;;;;;;10253143;28;20145;-73
2022/12/20 20:22:44;;;;;;;79.85;73.65;;;;;;;;;;10256049;28;20554;-72
2022/12/20 20:27:40;;;;;;;77.47;71.38;;;;;;;;;;10261195;28;20535;-73
2022/12/20 20:32:36;;;;;;;76.97;70.97;;;;;;;;;;10266890;28;20648;-71
2022/12/20 20:37:33;;;;;;;72.93;67.07;;;;;;;;;;10260896;28;20056;-71
2022/12/20 20:42:29;;;;;;;76.45;70.38;;;;;;;;;;10257778;28;20072;-71
2022/12/20 20:47:25;;;;;;;72.38;66.68;;;;;;;;;;10264978;28;20127;-71
2022/12/20 20:52:21;;;;;;;74.55;68.32;;;;;;;;;;10254475;28;20041;-71
2022/12/20 20:57:18;;;;;;;73.93;67.63;;;;;;;;;;10256614;28;20059;-71
2022/12/20 21:02:14;;;;;;;71.32;65.38;;;;;;;;;;10281306;28;20079;-74
2022/12/20 21:07:11;;;;;;;75.78;69.25;;;;;;;;;;10287892;28;20044;-73
2022/12/20 21:12:07;;;;;;;79.15;72.45;;;;;;;;;;10282814;28;20156;-73
2022/12/20 21:17:04;;;;;;;75.82;69.70;;;;;;;;;;10274359;28;20045;-73
2022/12/20 21:22:00;;;;;;;78.18;71.68;;;;;;;;;;10283435;28;20048;-72
2022/12/20 21:26:57;;;;;;;77.85;71.45;;;;;;;;;;10257367;28;20116;-72
2022/12/20 21:31:53;;;;;;;76.22;69.85;;;;;;;;;;10264914;28;20529;-72
2022/12/20 21:36:49;;;;;;;79.03;71.95;;;;;;;;;;10265244;28;20510;-70
2022/12/20 21:41:46;;;;;;;77.25;70.95;;;;;;;;;;10260770;28;20559;-68
2022/12/20 21:46:42;;;;;;;79.10;72.30;;;;;;;;;;10265060;28;20053;-70
2022/12/20 21:51:38;;;;;;;78.43;71.93;;;;;;;;;;10287783;28;20128;-72
2022/12/20 21:56:34;;;;;;;77.75;71.18;;;;;;;;;;10263094;28;20064;-71
2022/12/20 22:01:31;;;;;;;77.32;70.80;;;;;;;;;;10276950;28;20456;-70
2022/12/20 22:06:27;;;;;;;78.95;72.35;;;;;;;;;;10260999;28;20044;-72
2022/12/20 22:11:24;;;;;;;76.05;69.82;;;;;;;;;;10280967;28;20044;-70
2022/12/20 22:16:21;;;;;;;78.15;71.72;;;;;;;;;;10275918;28;20077;-72
2022/12/20 22:21:18;;;;;;;75.88;69.65;;;;;;;;;;10290879;28;20132;-72
2022/12/20 22:26:15;;;;;;;74.03;68.10;;;;;;;;;;10296630;28;20045;-72
2022/12/20 22:31:12;;;;;;;77.97;71.53;;;;;;;;;;10276060;28;20526;-72
2022/12/20 22:36:10;;;;;;;75.97;69.78;;;;;;;;;;10288676;28;20090;-73
2022/12/20 22:41:11;;;;;;;78.30;71.78;;;;;;;;;;10294299;28;20470;-71
2022/12/20 22:46:10;;;;;;;76.68;70.47;;;;;;;;;;10265990;28;20492;-73
2022/12/20 22:51:08;;;;;;;77.65;71.07;;;;;;;;;;10281267;28;20553;-72
2022/12/20 22:56:05;;;;;;;75.68;69.30;;;;;;;;;;10278283;28;20051;-73
2022/12/20 23:01:03;;;;;;;76.28;70.07;;;;;;;;;;10273735;28;20046;-67
2022/12/20 23:06:00;;;;;;;78.07;71.45;;;;;;;;;;10282597;28;20051;-70
2022/12/20 23:16:12;;;;;;;76.30;69.78;;;;;;;;;;10277716;28;20550;-73
2022/12/20 23:26:25;;;;;;;75.60;69.22;;;;;;;;;;10272013;28;20047;-74
2022/12/20 23:31:21;;;;;;;77.78;71.13;;;;;;;;;;10294564;28;20135;-68
2022/12/20 23:36:18;;;;;;;77.10;70.88;;;;;;;;;;10287798;28;20036;-68
2022/12/20 23:41:14;;;;;;;77.35;71.00;;;;;;;;;;10288967;28;20136;-75
2022/12/20 23:46:12;;;;;;;76.75;70.55;;;;;;;;;;10279321;28;20568;-75
2022/12/20 23:51:09;;;;;;;76.03;70.05;;;;;;;;;;10288678;28;20041;-75
2022/12/20 23:56:13;;;;;;;73.57;67.55;;;;;;;;;;10263128;28;20052;-68
